Time;durP1;ratioP1;P1;durP2;ratioP2;P2;SDS_P1;SDS_P2;PMS_P1;PMS_P2;Temp;Humidity;BMP_temperature;BMP_pressure;BME280_temperature;BME280_humidity;BME280_pressure;Samples;Min_cycle;Max_cycle;Signal;HPM_P1;HPM_P2
2021/07/26 00:01:15;;;;;;;0.10;0.10;;;;;;;21.50;46.59;99253.19;5061545;28;20033;-80
2021/07/26 00:03:40;;;;;;;0.00;0.00;;;;;;;21.33;46.64;99257.75;5030117;28;20057;-82
2021/07/26 00:06:05;;;;;;;0.10;0.10;;;;;;;21.22;47.10;99259.34;5030296;28;20518;-77
2021/07/26 00:08:31;;;;;;;0.10;0.10;;;;;;;21.12;47.23;99266.06;5030900;28;20485;-77
2021/07/26 00:11:10;;;;;;;0.00;0.00;;;;;;;21.02;47.58;99266.50;5019486;28;20032;-78
2021/07/26 00:13:36;;;;;;;0.00;0.00;;;;;;;20.88;47.57;99259.47;5023817;28;20028;-83
2021/07/26 00:16:02;;;;;;;0.10;0.10;;;;;;;20.92;47.49;99265.03;5029278;28;20037;-83
2021/07/26 00:18:28;;;;;;;0.10;0.10;;;;;;;20.85;47.64;99260.19;5029109;28;20034;-81
2021/07/26 00:20:54;;;;;;;0.10;0.10;;;;;;;20.84;47.83;99257.81;5029655;28;20040;-81
2021/07/26 00:23:20;;;;;;;0.10;0.10;;;;;;;20.81;47.99;99253.81;5029146;28;20627;-84
2021/07/26 00:25:46;;;;;;;0.10;0.10;;;;;;;20.76;47.93;99257.56;5029187;28;20049;-85
2021/07/26 00:28:11;;;;;;;0.10;0.10;;;;;;;20.76;48.19;99245.91;5029718;28;20025;-84
2021/07/26 00:30:37;;;;;;;0.10;0.10;;;;;;;20.75;48.23;99236.16;5029466;28;20029;-80
2021/07/26 00:36:18;;;;;;;0.10;0.10;;;;;;;20.68;48.34;99244.84;5026345;28;20041;-82
2021/07/26 00:38:43;;;;;;;0.05;0.05;;;;;;;20.65;48.47;99245.50;5062235;28;20049;-77
2021/07/26 00:41:09;;;;;;;0.10;0.10;;;;;;;20.63;48.35;99245.88;5030417;28;20064;-81
2021/07/26 00:43:34;;;;;;;0.10;0.10;;;;;;;20.60;48.84;99245.75;5063138;28;20040;-80
2021/07/26 00:45:59;;;;;;;0.10;0.10;;;;;;;20.55;48.95;99249.47;5028775;28;20030;-81
2021/07/26 00:48:25;;;;;;;0.10;0.10;;;;;;;20.52;48.68;99257.50;5061653;28;20548;-82
2021/07/26 00:50:52;;;;;;;0.10;0.10;;;;;;;20.50;48.84;99254.34;5029679;28;20025;-82
2021/07/26 00:53:18;;;;;;;0.10;0.10;;;;;;;20.46;48.85;99252.28;5029288;28;20381;-81
2021/07/26 00:55:44;;;;;;;0.10;0.10;;;;;;;20.41;48.93;99257.13;5030483;28;20040;-82
2021/07/26 00:58:09;;;;;;;0.10;0.10;;;;;;;20.37;48.95;99261.66;5028546;28;20087;-83
2021/07/26 01:00:35;;;;;;;0.10;0.10;;;;;;;20.32;48.90;99257.25;5028911;28;20044;-83
2021/07/26 01:03:00;;;;;;;0.10;0.10;;;;;;;20.28;49.05;99259.84;5028981;28;20040;-83
2021/07/26 01:05:26;;;;;;;0.10;0.10;;;;;;;20.24;48.93;99255.44;5029054;28;20427;-84
2021/07/26 01:07:51;;;;;;;0.10;0.10;;;;;;;20.18;49.35;99263.00;5029050;28;20025;-80
2021/07/26 01:10:17;;;;;;;0.00;0.00;;;;;;;20.15;49.37;99259.03;5029065;28;20033;-80
2021/07/26 01:12:43;;;;;;;0.10;0.10;;;;;;;20.12;49.58;99256.97;5029192;28;20124;-79
2021/07/26 01:15:09;;;;;;;0.10;0.10;;;;;;;20.08;49.51;99249.81;5061876;28;20030;-79
2021/07/26 01:18:21;;;;;;;0.10;0.10;;;;;;;20.03;49.62;99255.47;5061337;28;20029;-79
2021/07/26 01:20:59;;;;;;;0.10;0.10;;;;;;;20.02;49.48;99246.53;5045797;28;20479;-81
2021/07/26 01:23:26;;;;;;;0.08;0.08;;;;;;;19.99;49.54;99242.56;5029345;28;20116;-79
2021/07/26 01:25:52;;;;;;;0.10;0.10;;;;;;;20.00;49.64;99249.56;5029186;28;20133;-79
2021/07/26 01:28:20;;;;;;;0.10;0.10;;;;;;;19.98;49.69;99243.69;5028707;28;20137;-79
2021/07/26 01:30:46;;;;;;;0.10;0.10;;;;;;;19.99;49.77;99242.56;5028240;28;20041;-79
2021/07/26 01:33:14;;;;;;;0.10;0.10;;;;;;;20.00;49.53;99241.41;5046183;28;20038;-79
2021/07/26 01:35:40;;;;;;;0.03;0.03;;;;;;;19.97;49.74;99233.19;5024918;28;20032;-79
2021/07/26 01:38:06;;;;;;;0.10;0.10;;;;;;;19.96;49.71;99235.09;5034045;28;20778;-80
2021/07/26 01:40:34;;;;;;;0.10;0.10;;;;;;;19.94;49.69;99228.41;5028016;28;20121;-79
2021/07/26 01:43:09;;;;;;;0.00;0.00;;;;;;;19.91;49.83;99229.88;5064297;28;20033;-80
2021/07/26 01:45:36;;;;;;;0.10;0.10;;;;;;;19.86;49.73;99219.22;5032297;28;20037;-76
2021/07/26 01:48:30;;;;;;;0.10;0.10;;;;;;;19.81;49.81;99219.38;5034115;28;20029;-76
2021/07/26 01:51:17;;;;;;;0.10;0.10;;;;;;;19.75;50.57;99212.59;4980646;28;20166;-78
2021/07/26 01:53:44;;;;;;;0.10;0.10;;;;;;;19.71;50.27;99223.31;5033440;28;20144;-79
2021/07/26 01:56:10;;;;;;;0.10;0.10;;;;;;;19.68;50.49;99224.00;5032060;28;20104;-82
2021/07/26 01:58:36;;;;;;;0.05;0.05;;;;;;;19.60;50.48;99233.75;5031758;28;20113;-81
2021/07/26 02:01:02;;;;;;;0.10;0.10;;;;;;;19.53;50.38;99230.81;5065136;28;20184;-80
2021/07/26 02:03:29;;;;;;;0.00;0.00;;;;;;;19.46;50.71;99231.34;5031978;28;20091;-80
2021/07/26 02:05:54;;;;;;;0.08;0.08;;;;;;;19.42;50.69;99224.19;5065420;28;20116;-80
2021/07/26 02:08:20;;;;;;;0.10;0.10;;;;;;;19.40;50.95;99226.44;5031863;28;20029;-82
2021/07/26 02:10:45;;;;;;;0.10;0.10;;;;;;;19.39;51.14;99224.88;5032004;28;20037;-80
2021/07/26 02:13:11;;;;;;;0.10;0.10;;;;;;;19.35;51.04;99225.50;5031236;28;20408;-81
2021/07/26 02:15:36;;;;;;;0.10;0.10;;;;;;;19.34;51.09;99229.34;5031629;28;20033;-80
2021/07/26 02:18:01;;;;;;;0.10;0.10;;;;;;;19.35;51.13;99228.22;5065014;28;20029;-84
2021/07/26 02:20:27;;;;;;;0.10;0.10;;;;;;;19.31;51.38;99226.50;5031992;28;20028;-78
2021/07/26 02:22:53;;;;;;;0.10;0.10;;;;;;;19.29;51.37;99234.97;5031753;28;20519;-77
2021/07/26 02:25:19;;;;;;;0.10;0.10;;;;;;;19.26;51.22;99234.81;5031619;28;20050;-77
2021/07/26 02:27:45;;;;;;;0.10;0.10;;;;;;;19.23;51.35;99236.28;5031426;28;20029;-79
2021/07/26 02:30:11;;;;;;;0.10;0.10;;;;;;;19.19;51.38;99232.66;5032347;28;20063;-78
2021/07/26 02:32:36;;;;;;;0.10;0.10;;;;;;;19.16;52.10;99238.72;5031866;28;20072;-83
2021/07/26 02:35:02;;;;;;;0.10;0.10;;;;;;;19.13;51.98;99233.97;5031356;28;20065;-80
2021/07/26 02:37:28;;;;;;;0.10;0.10;;;;;;;19.15;51.75;99239.84;5064686;28;20049;-83
2021/07/26 02:39:53;;;;;;;0.10;0.10;;;;;;;19.12;51.85;99243.22;5063716;28;20032;-83
2021/07/26 02:42:18;;;;;;;0.10;0.10;;;;;;;19.14;51.80;99240.97;5030084;28;20043;-79
2021/07/26 02:44:44;;;;;;;0.05;0.05;;;;;;;19.09;51.63;99241.97;5031156;28;20030;-79
2021/07/26 02:47:09;;;;;;;0.10;0.10;;;;;;;19.06;51.64;99245.31;5030990;28;20089;-78
2021/07/26 02:49:35;;;;;;;0.10;0.10;;;;;;;18.99;51.60;99237.72;5030692;28;20033;-79
2021/07/26 02:52:00;;;;;;;0.00;0.00;;;;;;;18.98;51.88;99243.44;5031321;28;20037;-78
2021/07/26 02:54:26;;;;;;;0.00;0.00;;;;;;;18.95;51.86;99239.47;5032233;28;20029;-78
2021/07/26 02:56:51;;;;;;;0.10;0.10;;;;;;;18.97;52.24;99244.56;5063829;28;20481;-78
2021/07/26 02:59:16;;;;;;;0.08;0.08;;;;;;;18.93;52.28;99247.16;5031521;28;20038;-79
2021/07/26 03:01:42;;;;;;;0.10;0.10;;;;;;;18.87;52.41;99237.56;5030229;28;20111;-77
2021/07/26 03:04:07;;;;;;;0.10;0.10;;;;;;;18.86;52.21;99238.72;5031333;28;20025;-78
2021/07/26 03:06:33;;;;;;;0.10;0.10;;;;;;;18.83;52.56;99237.44;5030437;28;20025;-77
2021/07/26 03:08:58;;;;;;;0.10;0.10;;;;;;;18.81;52.46;99245.09;5032159;28;20029;-78
2021/07/26 03:11:23;;;;;;;0.10;0.10;;;;;;;18.79;52.68;99241.91;5030257;28;20451;-76
2021/07/26 03:13:49;;;;;;;0.10;0.10;;;;;;;18.75;52.70;99232.88;5016969;28;20032;-77
2021/07/26 03:16:15;;;;;;;0.10;0.10;;;;;;;18.78;52.92;99232.19;5029817;28;20037;-77
2021/07/26 03:18:41;;;;;;;0.10;0.10;;;;;;;18.85;52.96;99224.34;5031847;28;20025;-76
2021/07/26 03:21:07;;;;;;;0.10;0.10;;;;;;;19.01;52.92;99226.53;5030479;28;20057;-75
2021/07/26 03:23:33;;;;;;;0.10;0.10;;;;;;;19.17;52.40;99222.13;5029498;28;20055;-76
2021/07/26 03:25:58;;;;;;;0.10;0.10;;;;;;;19.37;52.07;99233.31;5031380;28;20140;-75
2021/07/26 03:28:24;;;;;;;0.10;0.10;;;;;;;19.60;51.61;99236.47;5031387;28;20528;-78
2021/07/26 03:30:50;;;;;;;0.10;0.10;;;;;;;19.83;51.10;99225.28;5031780;28;20029;-78
2021/07/26 03:33:15;;;;;;;0.10;0.10;;;;;;;20.13;50.74;99227.91;5029416;28;20029;-81
2021/07/26 03:35:41;;;;;;;0.10;0.10;;;;;;;20.45;50.16;99222.75;5030501;28;20047;-80
2021/07/26 03:38:06;;;;;;;0.00;0.00;;;;;;;20.80;49.18;99222.34;5029607;28;20033;-80
2021/07/26 03:40:33;;;;;;;0.10;0.10;;;;;;;21.16;48.21;99237.03;5030156;28;20042;-80
2021/07/26 03:43:01;;;;;;;0.10;0.10;;;;;;;21.55;47.38;99231.94;5030744;28;20061;-78
2021/07/26 03:45:27;;;;;;;0.10;0.10;;;;;;;22.00;46.23;99243.72;5062253;28;20057;-78
2021/07/26 03:47:55;;;;;;;0.00;0.00;;;;;;;22.39;45.33;99237.75;5029981;28;20033;-77
2021/07/26 03:50:21;;;;;;;0.10;0.10;;;;;;;22.80;44.44;99243.81;5028432;28;20140;-79
2021/07/26 03:52:54;;;;;;;0.08;0.08;;;;;;;23.18;43.37;99244.31;5062959;28;20061;-77
2021/07/26 03:55:21;;;;;;;0.10;0.10;;;;;;;23.55;42.61;99246.63;5030702;28;20029;-79
2021/07/26 03:57:48;;;;;;;0.03;0.03;;;;;;;23.91;41.68;99246.56;5029776;28;20033;-77
2021/07/26 04:00:16;;;;;;;0.10;0.10;;;;;;;24.26;41.04;99245.66;5029927;28;20136;-77
2021/07/26 04:02:42;;;;;;;0.10;0.10;;;;;;;24.64;40.40;99254.13;5018709;28;20283;-79
2021/07/26 04:05:15;;;;;;;0.10;0.10;;;;;;;24.99;39.70;99259.38;5030568;28;20037;-82
2021/07/26 04:07:44;;;;;;;0.10;0.10;;;;;;;25.35;38.76;99264.56;5019864;28;20041;-81
2021/07/26 04:10:10;;;;;;;0.00;0.00;;;;;;;25.72;38.11;99261.94;5029251;28;20082;-81
2021/07/26 04:12:36;;;;;;;0.00;0.00;;;;;;;25.92;37.57;99272.72;5061560;28;20025;-80
2021/07/26 04:15:09;;;;;;;0.00;0.00;;;;;;;26.12;37.42;99270.63;5024636;28;20045;-79
2021/07/26 04:17:35;;;;;;;0.10;0.10;;;;;;;26.43;36.90;99271.31;5029079;28;20057;-83
2021/07/26 04:20:02;;;;;;;0.00;0.00;;;;;;;26.78;36.41;99277.50;5028734;28;20026;-79
2021/07/26 04:22:27;;;;;;;0.00;0.00;;;;;;;27.10;36.05;99276.94;5029682;28;20026;-78
2021/07/26 04:24:52;;;;;;;0.00;0.00;;;;;;;27.46;35.65;99280.69;5029144;28;20041;-76
2021/07/26 04:27:18;;;;;;;0.00;0.00;;;;;;;27.74;35.43;99283.97;5030821;28;20022;-75
2021/07/26 04:29:43;;;;;;;0.00;0.00;;;;;;;28.12;34.59;99284.50;5029282;28;20103;-77
2021/07/26 04:32:10;;;;;;;0.00;0.00;;;;;;;28.46;34.25;99280.66;5029344;28;20025;-77
2021/07/26 04:34:36;;;;;;;0.00;0.00;;;;;;;28.84;34.01;99289.31;5030218;28;20120;-77
2021/07/26 04:37:02;;;;;;;0.10;0.10;;;;;;;29.17;33.28;99301.06;5031450;28;20323;-77
2021/07/26 04:39:27;;;;;;;0.00;0.00;;;;;;;29.49;33.22;99301.03;5029898;28;20489;-77
2021/07/26 04:41:53;;;;;;;0.00;0.00;;;;;;;29.69;32.98;99304.09;5029490;28;20413;-76
2021/07/26 04:44:18;;;;;;;0.00;0.00;;;;;;;29.96;32.19;99300.84;5029542;28;20021;-76
2021/07/26 04:46:43;;;;;;;0.00;0.00;;;;;;;30.25;32.29;99297.94;5031086;28;20029;-76
2021/07/26 04:49:09;;;;;;;0.00;0.00;;;;;;;30.53;31.94;99310.00;5030707;28;20381;-76
2021/07/26 04:51:34;;;;;;;0.03;0.03;;;;;;;30.80;31.97;99312.16;5030660;28;20033;-77
2021/07/26 04:54:00;;;;;;;0.00;0.00;;;;;;;31.08;31.39;99308.38;5031015;28;20029;-76
2021/07/26 04:56:25;;;;;;;0.10;0.10;;;;;;;31.36;31.43;99311.25;5029480;28;20388;-76
2021/07/26 04:58:50;;;;;;;0.10;0.10;;;;;;;31.61;30.94;99308.22;5031204;28;20540;-76
2021/07/26 05:01:16;;;;;;;0.10;0.10;;;;;;;31.60;31.72;99307.44;5029407;28;20056;-76
2021/07/26 05:03:41;;;;;;;0.00;0.00;;;;;;;31.71;31.62;99296.28;5029646;28;20029;-78
2021/07/26 05:06:07;;;;;;;0.00;0.00;;;;;;;31.96;31.05;99308.19;5033196;28;20025;-77
2021/07/26 05:08:33;;;;;;;0.00;0.00;;;;;;;32.04;31.10;99309.66;5033357;28;20489;-78
2021/07/26 05:10:58;;;;;;;0.10;0.10;;;;;;;32.21;31.33;99303.16;5033470;28;20116;-78
2021/07/26 05:13:23;;;;;;;0.00;0.00;;;;;;;32.48;31.01;99304.31;5034254;28;20131;-77
2021/07/26 05:15:49;;;;;;;0.10;0.10;;;;;;;32.69;30.79;99297.63;5034291;28;20545;-77
2021/07/26 05:18:14;;;;;;;0.10;0.10;;;;;;;32.94;30.46;99299.25;5034239;28;20033;-77
2021/07/26 05:20:40;;;;;;;0.00;0.00;;;;;;;33.00;30.62;99303.84;5034180;28;20436;-78
2021/07/26 05:23:09;;;;;;;0.10;0.10;;;;;;;33.01;30.60;99302.66;5034214;28;20109;-78
2021/07/26 05:25:35;;;;;;;0.38;0.20;;;;;;;33.07;30.15;99302.97;5034038;28;20057;-78
2021/07/26 05:28:01;;;;;;;0.10;0.10;;;;;;;33.28;30.10;99312.09;5033043;28;20392;-79
2021/07/26 05:30:26;;;;;;;0.03;0.03;;;;;;;33.29;29.60;99302.53;5034092;28;20112;-77
2021/07/26 05:32:53;;;;;;;0.63;0.45;;;;;;;33.35;29.34;99301.66;5032771;28;20048;-77
2021/07/26 05:35:19;;;;;;;0.20;0.20;;;;;;;33.34;29.41;99305.66;5033754;28;20025;-77
2021/07/26 05:37:44;;;;;;;0.20;0.20;;;;;;;33.47;29.45;99305.81;5032596;28;20087;-77
2021/07/26 05:40:11;;;;;;;0.00;0.00;;;;;;;33.66;28.80;99304.22;5033891;28;20076;-77
2021/07/26 05:42:36;;;;;;;0.03;0.03;;;;;;;33.67;28.60;99305.78;5033314;28;20029;-77
2021/07/26 05:45:04;;;;;;;0.10;0.10;;;;;;;33.74;28.66;99299.31;5033657;28;20037;-77
2021/07/26 05:47:30;;;;;;;0.00;0.00;;;;;;;33.89;28.47;99294.25;5033566;28;20022;-77
2021/07/26 05:49:55;;;;;;;0.00;0.00;;;;;;;34.12;28.69;99295.38;5033848;28;20504;-76
2021/07/26 05:52:21;;;;;;;0.10;0.10;;;;;;;34.37;28.14;99297.56;5032214;28;20299;-77
2021/07/26 05:54:47;;;;;;;0.00;0.00;;;;;;;34.63;27.66;99297.72;5032353;28;20451;-77
2021/07/26 05:57:15;;;;;;;0.10;0.10;;;;;;;34.88;27.80;99305.47;5033362;28;20026;-76
2021/07/26 05:59:41;;;;;;;0.10;0.10;;;;;;;35.13;27.36;99303.25;5033280;28;20033;-77
2021/07/26 06:02:06;;;;;;;0.00;0.00;;;;;;;35.33;27.29;99305.88;5033559;28;20040;-77
2021/07/26 06:04:32;;;;;;;0.00;0.00;;;;;;;35.48;27.33;99297.97;5033337;28;20404;-77
2021/07/26 06:06:58;;;;;;;0.00;0.00;;;;;;;35.66;26.85;99300.22;5033532;28;20065;-77
2021/07/26 06:09:24;;;;;;;0.00;0.00;;;;;;;35.84;26.27;99296.91;5033226;28;20029;-77
2021/07/26 06:11:51;;;;;;;0.10;0.10;;;;;;;35.98;26.40;99301.28;5033298;28;20041;-77
2021/07/26 06:14:18;;;;;;;;;;;;;;;35.94;26.58;99303.38;5033456;28;20124;-77
2021/07/26 06:16:46;;;;;;;0.00;0.00;;;;;;;36.03;26.03;99295.16;5031821;28;19913;-77
2021/07/26 06:19:12;;;;;;;0.10;0.10;;;;;;;36.06;26.52;99302.63;5033027;28;20040;-77
2021/07/26 06:21:48;;;;;;;0.00;0.00;;;;;;;36.09;26.54;99312.88;5032985;28;20094;-77
2021/07/26 06:24:14;;;;;;;0.00;0.00;;;;;;;36.13;25.98;99313.53;5033154;28;20029;-77
2021/07/26 06:26:41;;;;;;;0.10;0.10;;;;;;;36.00;26.04;99307.16;5032794;28;20124;-77
2021/07/26 06:29:07;;;;;;;0.00;0.00;;;;;;;35.90;26.12;99309.06;5032825;28;20417;-77
2021/07/26 06:31:32;;;;;;;0.20;0.20;;;;;;;35.58;25.64;99306.00;5031496;28;20037;-77
2021/07/26 06:34:02;;;;;;;0.10;0.10;;;;;;;35.14;26.18;99308.38;5031599;28;20045;-76
2021/07/26 06:36:28;;;;;;;0.52;0.52;;;;;;;34.83;26.41;99307.94;5033057;28;20116;-76
2021/07/26 06:38:54;;;;;;;0.10;0.10;;;;;;;34.36;27.83;99307.09;5032589;28;20527;-76
2021/07/26 06:41:19;;;;;;;0.10;0.10;;;;;;;34.24;28.10;99307.75;5032550;28;20041;-76
2021/07/26 06:43:45;;;;;;;2.60;0.25;;;;;;;34.04;28.07;99305.06;5032713;28;20025;-76
2021/07/26 06:46:10;;;;;;;0.10;0.10;;;;;;;33.84;28.00;99308.66;5032646;28;20033;-76
2021/07/26 06:48:36;;;;;;;0.00;0.00;;;;;;;33.60;28.29;99303.16;5031103;28;20021;-76
2021/07/26 06:51:04;;;;;;;0.00;0.00;;;;;;;33.51;28.66;99314.06;5031307;28;20029;-76
2021/07/26 06:53:32;;;;;;;0.00;0.00;;;;;;;33.43;28.76;99310.63;5032357;28;20064;-76
2021/07/26 06:56:06;;;;;;;0.00;0.00;;;;;;;33.31;28.25;99309.28;5032535;28;20033;-76
2021/07/26 06:58:32;;;;;;;0.13;0.10;;;;;;;33.09;28.97;99310.84;5030933;28;20397;-76
2021/07/26 07:01:04;;;;;;;0.00;0.00;;;;;;;33.00;28.71;99311.41;5032193;28;20036;-76
2021/07/26 07:03:29;;;;;;;0.10;0.10;;;;;;;32.77;28.50;99306.66;5032040;28;20105;-76
2021/07/26 07:06:09;;;;;;;0.00;0.00;;;;;;;32.62;29.40;99301.31;5032140;28;20033;-76
2021/07/26 07:08:35;;;;;;;1.27;0.30;;;;;;;32.51;29.37;99301.50;5031988;28;20021;-76
2021/07/26 07:11:24;;;;;;;0.00;0.00;;;;;;;32.45;29.21;99307.94;5031955;28;20037;-76
2021/07/26 07:13:50;;;;;;;0.10;0.10;;;;;;;32.37;29.31;99307.25;5032094;28;20025;-76
2021/07/26 07:16:18;;;;;;;0.10;0.10;;;;;;;32.22;29.35;99304.69;5032119;28;20029;-75
2021/07/26 07:18:45;;;;;;;0.10;0.10;;;;;;;32.02;28.96;99306.53;5031809;28;20397;-75
2021/07/26 07:21:28;;;;;;;0.00;0.00;;;;;;;31.94;29.29;99311.38;5031815;28;20030;-75
2021/07/26 07:23:55;;;;;;;0.10;0.10;;;;;;;31.76;29.56;99312.41;5031934;28;20026;-75
2021/07/26 07:26:22;;;;;;;0.00;0.00;;;;;;;31.75;29.59;99312.78;5030462;28;20092;-75
2021/07/26 07:28:49;;;;;;;0.03;0.03;;;;;;;31.70;29.96;99314.06;5031240;28;20021;-76
2021/07/26 07:31:17;;;;;;;0.20;0.20;;;;;;;31.59;29.98;99311.38;5031866;28;20037;-76
2021/07/26 07:33:43;;;;;;;0.00;0.00;;;;;;;31.57;29.84;99311.00;5030280;28;20275;-76
2021/07/26 07:36:09;;;;;;;0.00;0.00;;;;;;;31.56;29.59;99303.91;5031472;28;20021;-75
2021/07/26 07:38:34;;;;;;;0.00;0.00;;;;;;;31.52;29.23;99310.66;5031488;28;20059;-75
2021/07/26 07:41:01;;;;;;;0.00;0.00;;;;;;;31.25;29.02;99306.63;5031376;28;20057;-77
2021/07/26 07:43:28;;;;;;;0.10;0.10;;;;;;;31.00;29.48;99309.59;5029795;28;20036;-76
2021/07/26 07:45:55;;;;;;;0.13;0.13;;;;;;;30.79;29.91;99305.84;5031541;28;20110;-76
2021/07/26 07:48:24;;;;;;;0.00;0.00;;;;;;;30.56;29.51;99306.41;5031675;28;20044;-76
2021/07/26 07:50:54;;;;;;;0.00;0.00;;;;;;;30.42;30.10;99304.53;5031499;28;20032;-77
2021/07/26 07:53:20;;;;;;;0.03;0.03;;;;;;;30.23;30.25;99307.81;5031229;28;20030;-76
2021/07/26 07:55:46;;;;;;;0.10;0.10;;;;;;;30.13;30.55;99304.72;5030847;28;20564;-76
2021/07/26 07:58:12;;;;;;;0.03;0.03;;;;;;;30.07;30.69;99297.28;5030095;28;20508;-76
2021/07/26 08:00:37;;;;;;;0.10;0.10;;;;;;;30.08;31.33;99305.13;5031261;28;20018;-75
2021/07/26 08:03:03;;;;;;;0.22;0.22;;;;;;;30.15;30.67;99307.84;5031223;28;20167;-75
2021/07/26 08:05:29;;;;;;;0.30;0.30;;;;;;;30.16;30.52;99314.94;5031376;28;20033;-76
2021/07/26 08:07:55;;;;;;;0.52;0.28;;;;;;;30.21;30.76;99310.97;5031254;28;20113;-75
2021/07/26 08:10:21;;;;;;;0.00;0.00;;;;;;;30.23;30.43;99305.81;5030930;28;20108;-77
2021/07/26 08:12:46;;;;;;;0.10;0.10;;;;;;;30.24;28.94;99298.34;5029744;28;20029;-78
2021/07/26 08:15:12;;;;;;;0.15;0.15;;;;;;;30.22;28.66;99303.47;5030065;28;20473;-78
2021/07/26 08:17:39;;;;;;;0.00;0.00;;;;;;;30.13;29.21;99304.72;5029765;28;20040;-77
2021/07/26 08:20:06;;;;;;;0.00;0.00;;;;;;;30.15;28.93;99294.06;5031109;28;20040;-77
2021/07/26 08:22:31;;;;;;;0.00;0.00;;;;;;;30.11;29.53;99292.50;5030832;28;20086;-77
2021/07/26 08:24:57;;;;;;;0.00;0.00;;;;;;;30.06;29.95;99290.97;5029740;28;20041;-76
2021/07/26 08:27:22;;;;;;;0.00;0.00;;;;;;;30.14;29.46;99289.72;5029583;28;20068;-76
2021/07/26 08:29:48;;;;;;;0.00;0.00;;;;;;;30.18;29.76;99281.44;5030840;28;20028;-76
2021/07/26 08:32:13;;;;;;;1.75;0.10;;;;;;;30.25;29.57;99281.41;5031152;28;20397;-76
2021/07/26 08:34:39;;;;;;;0.00;0.00;;;;;;;30.19;27.66;99289.31;5030657;28;20029;-76
2021/07/26 08:37:04;;;;;;;0.00;0.00;;;;;;;30.05;28.17;99289.38;5030667;28;20159;-76
2021/07/26 08:39:30;;;;;;;0.32;0.32;;;;;;;30.06;28.44;99290.97;5030843;28;20508;-78
2021/07/26 08:41:56;;;;;;;0.00;0.00;;;;;;;29.98;28.83;99287.47;5033658;28;20124;-78
2021/07/26 08:44:21;;;;;;;0.05;0.03;;;;;;;29.99;28.40;99285.47;5035010;28;20108;-78
2021/07/26 08:46:51;;;;;;;0.40;0.38;;;;;;;29.80;28.04;99297.78;5033305;28;20443;-76
2021/07/26 08:49:19;;;;;;;0.10;0.10;;;;;;;29.70;28.61;99293.88;5033624;28;20037;-78
2021/07/26 08:51:45;;;;;;;0.00;0.00;;;;;;;29.64;29.14;99292.72;5034528;28;20029;-77
2021/07/26 08:54:14;;;;;;;0.15;0.15;;;;;;;29.69;29.45;99293.06;5033414;28;20029;-77
2021/07/26 08:56:40;;;;;;;0.00;0.00;;;;;;;29.75;29.38;99292.66;5034159;28;20029;-77
2021/07/26 08:59:05;;;;;;;0.20;0.20;;;;;;;29.78;28.83;99287.13;5034332;28;20059;-77
2021/07/26 09:01:31;;;;;;;0.08;0.08;;;;;;;29.79;28.73;99294.22;5034295;28;20108;-76
2021/07/26 09:03:56;;;;;;;0.10;0.10;;;;;;;29.85;28.24;99289.06;5034538;28;20405;-77
2021/07/26 09:06:23;;;;;;;0.00;0.00;;;;;;;29.89;28.49;99289.84;5034699;28;20108;-76
2021/07/26 09:08:48;;;;;;;0.00;0.00;;;;;;;29.96;28.00;99289.06;5033863;28;20095;-77
2021/07/26 09:11:14;;;;;;;0.00;0.00;;;;;;;30.02;27.84;99290.97;5034709;28;20025;-78
2021/07/26 09:13:44;;;;;;;0.05;0.05;;;;;;;30.03;28.90;99291.78;5032761;28;20030;-78
2021/07/26 09:16:22;;;;;;;0.10;0.10;;;;;;;29.99;28.05;99291.00;5034321;28;20246;-78
2021/07/26 09:19:03;;;;;;;0.10;0.10;;;;;;;29.87;28.43;99279.22;5033929;28;20040;-77
2021/07/26 09:21:52;;;;;;;0.00;0.00;;;;;;;29.89;28.82;99278.03;5033543;28;20419;-77
2021/07/26 09:24:25;;;;;;;0.10;0.10;;;;;;;29.86;28.06;99279.63;5033840;28;20029;-79
2021/07/26 09:26:52;;;;;;;0.00;0.00;;;;;;;29.84;27.77;99287.50;5065765;28;20029;-75
2021/07/26 09:29:30;;;;;;;0.10;0.10;;;;;;;29.68;28.40;99285.22;5034006;28;20033;-78
2021/07/26 09:31:57;;;;;;;0.20;0.20;;;;;;;29.64;28.61;99282.47;5033713;28;20087;-78
2021/07/26 09:34:23;;;;;;;0.10;0.10;;;;;;;29.54;28.22;99275.81;5034206;28;20392;-77
2021/07/26 09:36:49;;;;;;;0.85;0.38;;;;;;;29.52;28.90;99280.16;5033973;28;20029;-76
2021/07/26 09:39:35;;;;;;;0.10;0.10;;;;;;;29.49;29.19;99291.97;5034160;28;20473;-78
2021/07/26 09:42:00;;;;;;;0.10;0.10;;;;;;;29.47;29.16;99275.84;5033506;28;20103;-77
2021/07/26 09:44:28;;;;;;;0.35;0.35;;;;;;;29.40;28.80;99264.84;5033722;28;20033;-77
2021/07/26 09:47:14;;;;;;;1.35;0.77;;;;;;;29.38;28.71;99272.72;5033725;28;20032;-77
2021/07/26 09:49:39;;;;;;;0.15;0.15;;;;;;;29.31;28.69;99272.72;5031754;28;20076;-77
2021/07/26 09:52:08;;;;;;;0.32;0.32;;;;;;;29.25;29.05;99269.59;5032660;28;20033;-77
2021/07/26 09:54:49;;;;;;;0.15;0.15;;;;;;;29.33;28.82;99264.88;5033368;28;20141;-76
2021/07/26 09:57:18;;;;;;;0.13;0.10;;;;;;;29.38;28.71;99261.69;5033783;28;20441;-76
2021/07/26 09:59:45;;;;;;;0.30;0.30;;;;;;;29.46;28.48;99260.50;5033219;28;20075;-77
2021/07/26 10:02:14;;;;;;;0.10;0.10;;;;;;;29.48;28.11;99251.81;5033383;28;20104;-77
2021/07/26 10:04:44;;;;;;;0.30;0.30;;;;;;;29.49;28.11;99256.94;5032937;28;20113;-77
2021/07/26 10:07:12;;;;;;;0.08;0.08;;;;;;;29.50;28.01;99246.72;5033291;28;20104;-76
2021/07/26 10:09:40;;;;;;;0.00;0.00;;;;;;;29.54;28.77;99251.03;5033050;28;20116;-77
2021/07/26 10:12:08;;;;;;;0.10;0.10;;;;;;;29.61;28.34;99241.16;5033241;28;20033;-76
2021/07/26 10:14:33;;;;;;;;;;;;;;;29.70;28.71;99245.03;5032146;28;20032;-76
2021/07/26 10:17:01;;;;;;;0.03;0.03;;;;;;;29.79;28.27;99233.56;5065186;28;19917;-76
2021/07/26 10:19:26;;;;;;;0.10;0.10;;;;;;;29.90;27.48;99233.53;5033176;28;20032;-77
2021/07/26 10:21:55;;;;;;;0.65;0.65;;;;;;;29.99;27.10;99233.09;5032830;28;20037;-75
2021/07/26 10:24:22;;;;;;;0.08;0.08;;;;;;;30.07;27.76;99223.59;5032440;28;20484;-76
2021/07/26 10:26:48;;;;;;;0.00;0.00;;;;;;;30.12;26.97;99236.94;5032460;28;20481;-76
2021/07/26 10:29:13;;;;;;;0.30;0.30;;;;;;;30.20;27.08;99229.44;5032359;28;20079;-78
2021/07/26 10:31:39;;;;;;;0.00;0.00;;;;;;;30.17;25.47;99221.94;5032732;28;20448;-78
2021/07/26 10:34:08;;;;;;;0.30;0.30;;;;;;;30.23;26.19;99225.06;5032930;28;20472;-78
2021/07/26 10:36:45;;;;;;;0.00;0.00;;;;;;;30.23;25.78;99222.31;5032555;28;20021;-76
2021/07/26 10:39:12;;;;;;;0.00;0.00;;;;;;;30.25;25.28;99203.38;5032795;28;20091;-76
2021/07/26 10:41:43;;;;;;;0.10;0.10;;;;;;;30.38;25.41;99206.41;5032348;28;20037;-76
2021/07/26 10:44:29;;;;;;;0.00;0.00;;;;;;;30.44;24.84;99202.03;5032640;28;20080;-76
2021/07/26 10:47:05;;;;;;;0.00;0.00;;;;;;;30.52;22.90;99206.34;5032329;28;20033;-75
2021/07/26 10:49:43;;;;;;;0.43;0.43;;;;;;;30.50;22.28;99211.47;5032490;28;20032;-78
2021/07/26 10:52:21;;;;;;;0.05;0.05;;;;;;;30.49;23.54;99198.81;5032309;28;20443;-75
2021/07/26 10:54:46;;;;;;;0.20;0.20;;;;;;;30.50;22.71;99203.19;5032016;28;20033;-75
2021/07/26 10:57:15;;;;;;;0.20;0.20;;;;;;;30.48;23.45;99198.06;5031262;28;20417;-77
2021/07/26 11:00:08;;;;;;;0.00;0.00;;;;;;;30.52;24.14;99200.00;5030687;28;20030;-76
2021/07/26 11:02:37;;;;;;;0.10;0.10;;;;;;;30.55;23.58;99201.97;5031195;28;20029;-77
2021/07/26 11:05:26;;;;;;;0.00;0.00;;;;;;;30.61;24.01;99200.34;5032503;28;20101;-77
2021/07/26 11:08:13;;;;;;;0.05;0.05;;;;;;;30.69;24.48;99196.31;5028396;28;20366;-77
2021/07/26 11:10:42;;;;;;;0.00;0.00;;;;;;;30.78;24.55;99193.84;5032288;28;20030;-77
2021/07/26 11:13:08;;;;;;;0.17;0.10;;;;;;;30.85;23.74;99192.19;5030924;28;20038;-77
2021/07/26 11:15:43;;;;;;;0.25;0.25;;;;;;;30.87;22.88;99189.81;5030402;28;20021;-77
2021/07/26 11:18:29;;;;;;;0.15;0.15;;;;;;;30.76;22.74;99190.72;5032106;28;20171;-77
2021/07/26 11:20:55;;;;;;;0.10;0.10;;;;;;;30.75;22.44;99194.69;5031925;28;20033;-77
2021/07/26 11:23:41;;;;;;;0.30;0.30;;;;;;;30.73;22.54;99197.06;5031629;28;20044;-77
2021/07/26 11:26:33;;;;;;;0.30;0.30;;;;;;;30.69;22.71;99190.81;5031874;28;20489;-77
2021/07/26 11:29:04;;;;;;;0.10;0.10;;;;;;;30.67;23.75;99184.91;5030356;28;20382;-76
2021/07/26 11:31:35;;;;;;;0.40;0.40;;;;;;;30.74;22.23;99186.81;5031890;28;20070;-77
2021/07/26 11:34:05;;;;;;;0.30;0.30;;;;;;;30.73;21.76;99185.25;5031871;28;20056;-77
2021/07/26 11:36:30;;;;;;;0.17;0.17;;;;;;;30.77;21.38;99186.78;5031701;28;20022;-77
2021/07/26 11:39:02;;;;;;;0.10;0.10;;;;;;;30.83;20.56;99173.28;5030036;28;20051;-76
2021/07/26 11:41:27;;;;;;;0.00;0.00;;;;;;;30.91;21.26;99174.00;5031597;28;20021;-76